createdAt,value
2023-06-29T00:02:27.044Z,13.70
2023-06-29T00:04:56.024Z,13.70
2023-06-29T00:07:26.186Z,13.60
2023-06-29T00:09:55.834Z,13.60
2023-06-29T00:12:23.700Z,13.60
2023-06-29T00:14:51.541Z,13.60
2023-06-29T00:17:20.237Z,13.50
2023-06-29T00:19:48.933Z,13.50
2023-06-29T00:22:16.949Z,13.40
2023-06-29T00:24:44.795Z,13.40
2023-06-29T00:27:14.256Z,13.40
2023-06-29T00:29:43.402Z,13.50
2023-06-29T00:32:11.564Z,13.30
2023-06-29T00:34:39.394Z,13.20
2023-06-29T00:37:07.283Z,13.30
2023-06-29T00:39:35.336Z,13.20
2023-06-29T00:42:04.774Z,13.10
2023-06-29T00:44:33.944Z,13.20
2023-06-29T00:47:01.806Z,13.10
2023-06-29T00:49:29.756Z,13.30
2023-06-29T00:51:57.587Z,13.20
2023-06-29T00:54:25.413Z,13.10
2023-06-29T00:56:53.813Z,13.10
2023-06-29T00:59:21.818Z,12.90
2023-06-29T01:01:51.014Z,12.90
2023-06-29T01:04:23.877Z,13.10
2023-06-29T01:06:58.389Z,13.20
2023-06-29T01:09:26.615Z,13.10
2023-06-29T01:11:54.450Z,13.00
2023-06-29T01:14:22.384Z,12.90
2023-06-29T01:16:51.579Z,12.90
2023-06-29T01:19:21.570Z,12.90
2023-06-29T01:21:56.037Z,12.80
2023-06-29T01:24:24.870Z,12.90
2023-06-29T01:26:54.072Z,12.90
2023-06-29T01:29:25.597Z,13.10
2023-06-29T01:32:01.453Z,13.30
2023-06-29T01:34:30.140Z,13.40
2023-06-29T01:37:03.008Z,13.00
2023-06-29T01:39:31.448Z,12.80
2023-06-29T01:42:00.613Z,12.80
2023-06-29T01:44:28.446Z,13.10
2023-06-29T01:46:56.281Z,13.20
2023-06-29T01:49:24.112Z,13.20
2023-06-29T01:51:51.935Z,13.20
2023-06-29T01:54:19.773Z,13.00
2023-06-29T01:56:47.583Z,12.90
2023-06-29T01:59:16.877Z,12.90
2023-06-29T02:01:44.716Z,12.70
2023-06-29T02:04:12.869Z,12.70
2023-06-29T02:06:40.692Z,12.70
2023-06-29T02:09:08.522Z,12.60
2023-06-29T02:11:36.349Z,12.70
2023-06-29T02:14:04.161Z,12.70
2023-06-29T02:16:33.708Z,12.80
2023-06-29T02:19:01.690Z,12.50
2023-06-29T02:21:29.519Z,12.60
2023-06-29T02:23:57.326Z,12.60
2023-06-29T02:26:26.676Z,12.70
2023-06-29T02:28:54.502Z,12.60
2023-06-29T02:31:22.408Z,12.50
2023-06-29T02:33:51.658Z,12.50
2023-06-29T02:36:22.181Z,12.50
2023-06-29T02:38:50.039Z,12.30
2023-06-29T02:41:17.884Z,12.10
2023-06-29T02:43:45.748Z,12.20
2023-06-29T02:46:13.587Z,12.10
2023-06-29T02:48:41.426Z,12.10
2023-06-29T02:51:10.731Z,12.00
2023-06-29T02:53:38.523Z,12.30
2023-06-29T02:56:06.527Z,12.20
2023-06-29T02:58:34.330Z,12.00
2023-06-29T03:01:02.221Z,12.20
2023-06-29T03:03:30.091Z,12.00
2023-06-29T03:05:57.990Z,12.00
2023-06-29T03:08:27.129Z,12.00
2023-06-29T03:10:54.968Z,12.00
2023-06-29T03:13:23.412Z,11.80
2023-06-29T03:15:51.766Z,11.70
2023-06-29T03:18:19.594Z,11.70
2023-06-29T03:20:47.418Z,11.80
2023-06-29T03:23:15.209Z,12.00
2023-06-29T03:25:44.868Z,12.00
2023-06-29T03:28:12.909Z,11.90
2023-06-29T03:30:40.743Z,12.10
2023-06-29T03:33:08.638Z,12.10
2023-06-29T03:35:36.467Z,12.00
2023-06-29T03:38:08.362Z,11.90
2023-06-29T03:40:36.332Z,11.90
2023-06-29T03:43:06.197Z,11.90
2023-06-29T03:45:34.129Z,11.90
2023-06-29T03:48:02.008Z,12.10
2023-06-29T03:50:29.924Z,12.00
2023-06-29T03:52:57.753Z,11.90
2023-06-29T03:55:26.216Z,11.80
2023-06-29T03:57:55.591Z,11.80
2023-06-29T04:00:24.876Z,11.70
2023-06-29T04:02:52.788Z,11.70
2023-06-29T04:05:20.664Z,11.80
2023-06-29T04:07:48.512Z,12.00
2023-06-29T04:10:16.344Z,12.30
2023-06-29T04:12:44.146Z,12.40
2023-06-29T04:15:12.356Z,12.30
2023-06-29T04:17:41.527Z,12.10
2023-06-29T04:20:10.682Z,12.10
2023-06-29T04:22:38.591Z,12.10
2023-06-29T04:25:07.462Z,12.10
2023-06-29T04:27:35.590Z,12.10
2023-06-29T04:30:04.413Z,12.00
2023-06-29T04:32:32.341Z,12.00
2023-06-29T04:35:02.713Z,12.30
2023-06-29T04:37:36.998Z,12.20
2023-06-29T04:40:06.266Z,12.00
2023-06-29T04:42:34.110Z,12.10
2023-06-29T04:45:02.037Z,12.30
2023-06-29T04:47:33.586Z,12.30
2023-06-29T04:50:02.801Z,12.30
2023-06-29T04:52:30.642Z,12.70
2023-06-29T04:54:58.467Z,13.10
2023-06-29T04:57:28.093Z,12.80
2023-06-29T04:59:57.471Z,12.60
2023-06-29T05:02:25.685Z,12.50
2023-06-29T05:04:53.605Z,12.50
2023-06-29T05:07:22.795Z,12.60
2023-06-29T05:09:50.647Z,12.60
2023-06-29T05:12:18.472Z,12.70
2023-06-29T05:14:46.272Z,12.70
2023-06-29T05:17:14.133Z,12.80
2023-06-29T05:19:42.033Z,12.90
2023-06-29T05:22:09.847Z,12.90
2023-06-29T05:24:39.264Z,13.00
2023-06-29T05:27:08.023Z,13.10
2023-06-29T05:29:35.845Z,13.10
2023-06-29T05:32:03.642Z,13.20
2023-06-29T05:34:31.442Z,13.20
2023-06-29T05:37:00.243Z,13.30
2023-06-29T05:39:28.440Z,13.40
2023-06-29T05:41:57.791Z,13.50
2023-06-29T05:44:25.592Z,13.60
2023-06-29T05:46:53.402Z,13.70
2023-06-29T05:49:21.227Z,13.80
2023-06-29T05:51:49.061Z,14.00
2023-06-29T05:54:16.884Z,14.10
2023-06-29T05:56:44.697Z,14.20
2023-06-29T05:59:13.847Z,14.30
2023-06-29T06:01:41.716Z,14.40
2023-06-29T06:04:09.768Z,14.50
2023-06-29T06:06:38.662Z,14.50
2023-06-29T06:09:06.523Z,14.60
2023-06-29T06:11:34.434Z,14.70
2023-06-29T06:14:02.741Z,14.80
2023-06-29T06:16:31.931Z,14.90
2023-06-29T06:18:59.812Z,15.00
2023-06-29T06:21:27.637Z,15.10
2023-06-29T06:23:56.061Z,15.10
2023-06-29T06:26:23.864Z,15.20
2023-06-29T06:28:52.346Z,15.30
2023-06-29T06:31:32.633Z,15.30
2023-06-29T06:34:03.766Z,15.50
2023-06-29T06:36:32.567Z,15.60
2023-06-29T06:39:00.762Z,15.70
2023-06-29T06:41:28.586Z,15.70
2023-06-29T06:43:56.469Z,15.80
2023-06-29T06:46:24.281Z,15.80
2023-06-29T06:48:52.144Z,15.90
2023-06-29T06:51:21.419Z,16.00
2023-06-29T06:53:49.211Z,16.20
2023-06-29T06:56:17.066Z,16.30
2023-06-29T06:58:44.882Z,16.40
2023-06-29T07:01:14.644Z,16.60
2023-06-29T07:03:42.569Z,16.70
2023-06-29T07:06:10.427Z,16.70
2023-06-29T07:08:39.571Z,16.80
2023-06-29T07:11:08.109Z,16.90
2023-06-29T07:13:35.945Z,17.10
2023-06-29T07:16:03.764Z,17.20
2023-06-29T07:18:32.193Z,17.30
2023-06-29T07:26:02.845Z,17.70
2023-06-29T07:28:30.645Z,17.90
2023-06-29T07:30:58.605Z,17.90
2023-06-29T07:33:26.530Z,18.00
2023-06-29T07:35:54.351Z,18.10
2023-06-29T07:38:22.176Z,18.40
2023-06-29T07:40:50.345Z,18.60
2023-06-29T07:43:19.630Z,18.60
2023-06-29T07:45:47.553Z,18.70
2023-06-29T07:48:15.543Z,18.80
2023-06-29T07:50:44.161Z,18.90
2023-06-29T07:53:12.446Z,19.00
2023-06-29T07:55:40.261Z,19.30
2023-06-29T08:00:40.163Z,19.50
2023-06-29T08:03:08.280Z,19.70
2023-06-29T08:08:07.222Z,20.10
2023-06-29T08:10:35.218Z,20.20
2023-06-29T08:13:05.789Z,20.70
2023-06-29T08:15:33.978Z,21.00
2023-06-29T08:18:03.280Z,21.20
2023-06-29T08:20:31.717Z,21.50
2023-06-29T08:22:59.593Z,21.80
2023-06-29T08:25:27.489Z,22.10
2023-06-29T08:27:55.704Z,22.20
2023-06-29T08:30:24.074Z,22.60
2023-06-29T08:32:52.009Z,23.10
2023-06-29T08:35:21.211Z,23.50
2023-06-29T08:37:49.051Z,23.80
2023-06-29T08:40:18.477Z,23.70
2023-06-29T08:42:46.312Z,23.70
2023-06-29T08:45:14.154Z,23.80
2023-06-29T08:47:42.065Z,24.10
2023-06-29T08:50:11.472Z,24.40
2023-06-29T08:52:41.259Z,24.70
2023-06-29T08:55:09.939Z,24.60
2023-06-29T08:57:37.777Z,24.80
2023-06-29T09:00:06.816Z,24.90
2023-06-29T09:02:34.952Z,25.10
2023-06-29T09:05:02.979Z,25.60
2023-06-29T09:07:30.914Z,25.80
2023-06-29T09:10:00.167Z,25.70
2023-06-29T09:12:29.032Z,25.90
2023-06-29T09:14:58.218Z,26.10
2023-06-29T09:17:27.732Z,26.40
2023-06-29T09:19:56.969Z,26.40
2023-06-29T09:22:27.610Z,26.60
2023-06-29T09:25:05.206Z,26.50
2023-06-29T09:27:39.479Z,26.80
2023-06-29T09:30:08.283Z,27.00
2023-06-29T09:32:38.424Z,26.80
2023-06-29T09:35:10.292Z,26.80
2023-06-29T09:37:38.245Z,26.80
2023-06-29T09:40:11.064Z,26.90
2023-06-29T09:42:40.473Z,27.10
2023-06-29T09:45:12.508Z,27.20
2023-06-29T09:50:18.996Z,27.30
2023-06-29T09:52:47.564Z,27.40
2023-06-29T09:55:15.569Z,27.50
2023-06-29T09:57:46.209Z,27.30
2023-06-29T10:00:15.063Z,27.30
2023-06-29T10:02:43.038Z,27.60
2023-06-29T10:05:11.296Z,27.50
2023-06-29T10:07:39.464Z,27.40
2023-06-29T10:10:08.476Z,27.50
2023-06-29T10:12:36.340Z,27.70
2023-06-29T10:15:10.317Z,27.90
2023-06-29T10:17:43.404Z,27.60
2023-06-29T10:20:11.936Z,27.60
2023-06-29T10:22:39.803Z,27.70
2023-06-29T10:25:10.136Z,27.70
2023-06-29T10:27:38.030Z,27.80
2023-06-29T10:30:08.369Z,27.80
2023-06-29T10:32:37.021Z,27.80
2023-06-29T10:35:05.820Z,27.90
2023-06-29T10:37:33.975Z,27.80
2023-06-29T10:40:01.963Z,27.90
2023-06-29T10:42:59.820Z,27.60
2023-06-29T10:45:39.643Z,27.60
2023-06-29T10:48:09.503Z,27.60
2023-06-29T10:50:39.067Z,27.70
2023-06-29T10:53:07.615Z,27.60
2023-06-29T10:55:57.644Z,27.90
2023-06-29T10:58:26.096Z,27.90
2023-06-29T11:00:55.815Z,28.10
2023-06-29T11:03:24.568Z,27.90
2023-06-29T11:05:52.945Z,28.10
2023-06-29T11:08:22.040Z,27.90
2023-06-29T11:10:49.983Z,28.10
2023-06-29T11:13:19.404Z,28.00
2023-06-29T11:15:57.743Z,27.50
2023-06-29T11:18:25.782Z,27.80
2023-06-29T11:20:53.643Z,28.10
2023-06-29T11:23:21.518Z,27.80
2023-06-29T11:25:49.432Z,27.80
2023-06-29T11:28:17.785Z,28.30
2023-06-29T11:30:47.970Z,28.50
2023-06-29T11:33:33.750Z,28.50
2023-06-29T11:36:03.102Z,28.50
2023-06-29T11:38:31.170Z,28.30
2023-06-29T11:41:05.893Z,28.30
2023-06-29T11:43:33.906Z,28.50
2023-06-29T11:46:02.559Z,28.50
2023-06-29T11:48:31.805Z,28.00
2023-06-29T11:51:01.612Z,28.20
2023-06-29T11:53:30.337Z,28.50
2023-06-29T11:55:58.883Z,28.50
2023-06-29T11:58:33.922Z,28.30
2023-06-29T12:01:01.889Z,28.60
2023-06-29T12:03:31.261Z,28.30
2023-06-29T12:06:01.301Z,28.10
2023-06-29T12:08:37.775Z,28.00
2023-06-29T12:11:05.731Z,28.10
2023-06-29T12:13:33.551Z,28.50
2023-06-29T12:18:37.099Z,28.60
2023-06-29T12:21:06.123Z,28.60
2023-06-29T12:23:34.113Z,28.60
2023-06-29T12:26:01.972Z,28.60
2023-06-29T12:28:29.809Z,28.50
2023-06-29T12:30:57.666Z,28.60
2023-06-29T12:33:25.541Z,29.10
2023-06-29T12:35:54.719Z,28.80
2023-06-29T12:38:22.534Z,29.00
2023-06-29T12:40:50.360Z,28.80
2023-06-29T12:43:18.247Z,28.90
2023-06-29T12:45:47.234Z,28.40
2023-06-29T12:48:15.203Z,28.50
2023-06-29T12:50:43.065Z,28.70
2023-06-29T12:53:12.251Z,28.70
2023-06-29T12:55:40.339Z,29.10
2023-06-29T12:58:08.215Z,29.00
2023-06-29T13:00:36.417Z,29.10
2023-06-29T13:03:08.619Z,29.20
2023-06-29T13:05:36.758Z,29.40
2023-06-29T13:08:04.833Z,29.30
2023-06-29T13:10:34.454Z,29.50
2023-06-29T13:13:02.682Z,29.50
2023-06-29T13:15:30.616Z,29.40
2023-06-29T13:17:58.495Z,29.10
2023-06-29T13:20:26.368Z,29.10
2023-06-29T13:22:54.241Z,29.30
2023-06-29T13:25:22.766Z,29.30
2023-06-29T13:27:51.967Z,29.10
2023-06-29T13:30:19.979Z,28.90
2023-06-29T13:32:47.912Z,29.10
2023-06-29T13:35:15.828Z,29.20
2023-06-29T13:37:43.742Z,29.00
2023-06-29T13:40:12.897Z,28.70
2023-06-29T13:42:41.025Z,28.50
2023-06-29T13:45:11.185Z,28.20
2023-06-29T13:47:40.781Z,28.00
2023-06-29T13:50:09.218Z,27.80
2023-06-29T13:52:37.065Z,27.80
2023-06-29T13:55:05.474Z,28.10
2023-06-29T13:57:34.253Z,28.20
2023-06-29T14:00:02.150Z,28.10
2023-06-29T14:02:31.430Z,28.00
2023-06-29T14:04:59.358Z,27.90
2023-06-29T14:07:27.267Z,27.60
2023-06-29T14:09:55.201Z,27.40
2023-06-29T14:12:23.069Z,27.40
2023-06-29T14:14:52.365Z,27.10
2023-06-29T14:17:22.170Z,27.30
2023-06-29T14:19:53.089Z,27.20
2023-06-29T14:22:21.039Z,26.90
2023-06-29T14:24:48.910Z,26.90
2023-06-29T14:27:18.332Z,26.80
2023-06-29T14:29:46.286Z,26.70
2023-06-29T14:32:14.997Z,26.60
2023-06-29T14:34:42.864Z,26.50
2023-06-29T14:37:12.053Z,26.40
2023-06-29T14:39:39.910Z,26.60
2023-06-29T14:42:08.756Z,26.60
2023-06-29T14:44:36.596Z,26.70
2023-06-29T14:47:04.635Z,26.70
2023-06-29T14:49:32.888Z,26.40
2023-06-29T14:52:00.728Z,26.30
2023-06-29T14:54:29.906Z,26.30
2023-06-29T14:56:59.173Z,26.40
2023-06-29T14:59:27.098Z,26.20
2023-06-29T15:01:55.228Z,26.20
2023-06-29T15:04:23.197Z,26.20
2023-06-29T15:06:53.844Z,26.00
2023-06-29T15:09:22.838Z,26.00
2023-06-29T15:11:53.033Z,25.90
2023-06-29T15:14:20.907Z,25.80
2023-06-29T15:16:48.927Z,26.00
2023-06-29T15:19:16.862Z,26.00
2023-06-29T15:21:44.720Z,26.10
2023-06-29T15:24:12.549Z,26.00
2023-06-29T15:26:40.381Z,26.00
2023-06-29T15:29:09.550Z,26.00
2023-06-29T15:31:37.474Z,26.00
2023-06-29T15:34:05.391Z,25.90
2023-06-29T15:36:33.331Z,25.90
2023-06-29T15:39:02.013Z,25.90
2023-06-29T15:41:30.465Z,25.80
2023-06-29T15:44:00.167Z,25.80
2023-06-29T15:46:29.498Z,25.80
2023-06-29T15:48:57.517Z,25.80
2023-06-29T15:51:25.421Z,25.70
2023-06-29T15:53:53.344Z,25.60
2023-06-29T15:56:21.219Z,25.60
2023-06-29T15:58:49.056Z,25.60
2023-06-29T16:01:16.896Z,25.60
2023-06-29T16:03:46.207Z,25.50
2023-06-29T16:06:14.130Z,25.50
2023-06-29T16:08:42.019Z,25.50
2023-06-29T16:11:09.906Z,25.50
2023-06-29T16:13:37.764Z,25.40
2023-06-29T16:16:05.829Z,25.40
2023-06-29T16:18:33.703Z,25.40
2023-06-29T16:21:02.890Z,25.40
2023-06-29T16:23:30.785Z,25.40
2023-06-29T16:25:58.747Z,25.40
2023-06-29T16:28:26.600Z,25.40
2023-06-29T16:30:54.486Z,25.40
2023-06-29T16:33:22.416Z,25.40
2023-06-29T16:35:50.357Z,25.40
2023-06-29T16:38:19.589Z,25.40
2023-06-29T16:40:47.424Z,25.40
2023-06-29T16:43:15.324Z,25.40
2023-06-29T16:45:43.527Z,25.40
2023-06-29T16:48:11.708Z,25.40
2023-06-29T16:50:39.628Z,25.40
2023-06-29T16:53:07.518Z,25.40
2023-06-29T16:55:36.887Z,25.30
2023-06-29T16:58:04.713Z,25.30
2023-06-29T17:00:32.608Z,25.20
2023-06-29T17:03:00.584Z,25.30
2023-06-29T17:05:28.969Z,25.30
2023-06-29T17:07:57.313Z,25.20
2023-06-29T17:10:25.308Z,25.20
2023-06-29T17:12:54.553Z,25.30
2023-06-29T17:15:22.412Z,25.20
2023-06-29T17:17:50.374Z,25.20
2023-06-29T17:20:20.315Z,25.20
2023-06-29T17:22:48.210Z,25.20
2023-06-29T17:25:16.193Z,25.20
2023-06-29T17:27:44.037Z,25.10
2023-06-29T17:30:14.654Z,25.10
2023-06-29T17:32:42.642Z,25.10
2023-06-29T17:35:10.856Z,25.10
2023-06-29T17:37:38.703Z,25.00
2023-06-29T17:40:08.205Z,25.00
2023-06-29T17:42:36.094Z,25.00
2023-06-29T17:45:04.014Z,25.00
2023-06-29T17:47:33.282Z,25.00
2023-06-29T17:50:01.141Z,25.00
2023-06-29T17:52:29.089Z,24.90
2023-06-29T17:54:56.954Z,24.90
2023-06-29T17:57:24.784Z,24.70
2023-06-29T17:59:52.632Z,24.80
2023-06-29T18:02:20.627Z,24.80
2023-06-29T18:04:49.869Z,24.80
2023-06-29T18:07:17.813Z,24.70
2023-06-29T18:09:45.648Z,24.70
2023-06-29T18:12:13.618Z,24.70
2023-06-29T18:14:41.535Z,24.60
2023-06-29T18:17:09.404Z,24.60
2023-06-29T18:19:37.200Z,24.60
2023-06-29T18:22:08.056Z,24.60
2023-06-29T18:24:36.937Z,24.50
2023-06-29T18:27:05.205Z,24.40
2023-06-29T18:29:33.028Z,24.40
2023-06-29T18:32:00.902Z,24.40
2023-06-29T18:34:28.721Z,24.30
2023-06-29T18:36:57.214Z,24.20
2023-06-29T18:39:26.605Z,24.20
2023-06-29T18:41:56.290Z,24.10
2023-06-29T18:44:24.143Z,24.10
2023-06-29T18:47:09.391Z,24.00
2023-06-29T18:49:49.738Z,24.00
2023-06-29T18:52:19.031Z,23.90
2023-06-29T18:54:48.762Z,23.80
2023-06-29T18:57:16.991Z,23.80
2023-06-29T18:59:44.863Z,23.70
2023-06-29T19:02:12.847Z,23.60
2023-06-29T19:04:40.795Z,23.50
2023-06-29T19:07:10.280Z,23.50
2023-06-29T19:09:38.169Z,23.40
2023-06-29T19:12:08.127Z,23.40
2023-06-29T19:14:36.105Z,23.20
2023-06-29T19:17:05.069Z,23.20
2023-06-29T19:19:32.998Z,23.00
2023-06-29T19:22:00.837Z,23.00
2023-06-29T19:24:28.705Z,23.00
2023-06-29T19:26:56.571Z,22.80
2023-06-29T19:29:25.757Z,22.80
2023-06-29T19:31:53.649Z,22.80
2023-06-29T19:34:21.533Z,22.80
2023-06-29T19:36:49.376Z,22.70
2023-06-29T19:39:17.181Z,22.70
2023-06-29T19:41:45.000Z,22.60
2023-06-29T19:44:12.930Z,22.50
2023-06-29T19:46:42.227Z,22.40
2023-06-29T19:49:11.096Z,22.20
2023-06-29T19:51:40.264Z,22.10
2023-06-29T19:54:08.104Z,22.10
2023-06-29T19:56:35.988Z,22.10
2023-06-29T19:59:03.970Z,22.00
2023-06-29T20:01:31.792Z,21.90
2023-06-29T20:04:01.041Z,21.80
2023-06-29T20:06:29.004Z,21.70
2023-06-29T20:08:56.877Z,21.50
2023-06-29T20:11:24.826Z,21.60
2023-06-29T20:13:52.687Z,21.50
2023-06-29T20:16:21.004Z,21.40
2023-06-29T20:18:49.855Z,21.40
2023-06-29T20:21:19.160Z,21.40
2023-06-29T20:23:51.509Z,21.20
2023-06-29T20:26:19.674Z,21.10
2023-06-29T20:28:47.545Z,21.00
2023-06-29T20:31:15.432Z,21.00
2023-06-29T20:33:43.347Z,21.00
2023-06-29T20:36:11.181Z,20.90
2023-06-29T20:38:41.251Z,20.80
2023-06-29T20:41:10.864Z,20.80
2023-06-29T20:43:38.724Z,20.70
2023-06-29T20:46:07.397Z,20.80
2023-06-29T20:48:35.288Z,20.70
2023-06-29T20:51:15.909Z,20.80
2023-06-29T20:53:46.079Z,20.70
2023-06-29T20:56:13.988Z,20.60
2023-06-29T20:58:42.068Z,20.50
2023-06-29T21:01:10.040Z,20.50
2023-06-29T21:03:39.170Z,20.50
2023-06-29T21:06:07.179Z,20.40
2023-06-29T21:08:35.313Z,20.30
2023-06-29T21:11:04.732Z,20.20
2023-06-29T21:13:32.875Z,20.30
2023-06-29T21:16:01.013Z,20.30
2023-06-29T21:18:30.264Z,20.20
2023-06-29T21:20:58.705Z,20.40
2023-06-29T21:23:26.773Z,20.30
2023-06-29T21:25:55.193Z,20.40
2023-06-29T21:28:24.523Z,20.40
2023-06-29T21:30:52.696Z,20.30
2023-06-29T21:33:22.016Z,20.30
2023-06-29T21:35:50.413Z,20.40
2023-06-29T21:38:18.769Z,20.40
2023-06-29T21:40:47.199Z,20.40
2023-06-29T21:43:15.037Z,20.40
2023-06-29T21:45:44.528Z,20.30
2023-06-29T21:48:14.188Z,20.30
2023-06-29T21:50:42.095Z,20.10
2023-06-29T21:53:09.905Z,20.00
2023-06-29T21:55:37.779Z,20.10
2023-06-29T21:58:06.663Z,20.10
2023-06-29T22:00:34.502Z,20.00
2023-06-29T22:03:03.940Z,19.90
2023-06-29T22:05:32.476Z,19.90
2023-06-29T22:08:00.348Z,19.90
2023-06-29T22:10:28.959Z,19.90
2023-06-29T22:12:56.794Z,19.90
2023-06-29T22:15:24.840Z,19.80
2023-06-29T22:17:52.692Z,19.70
2023-06-29T22:20:24.133Z,19.70
2023-06-29T22:22:52.004Z,19.90
2023-06-29T22:25:19.844Z,20.00
2023-06-29T22:27:48.177Z,19.90
2023-06-29T22:30:16.139Z,19.90
2023-06-29T22:32:51.807Z,20.00
2023-06-29T22:35:22.135Z,20.00
2023-06-29T22:37:49.994Z,20.00
2023-06-29T22:40:17.877Z,20.10
2023-06-29T22:42:45.773Z,20.10
2023-06-29T22:45:13.750Z,20.10
2023-06-29T22:47:41.790Z,20.10
2023-06-29T22:50:10.265Z,20.10
2023-06-29T22:52:39.419Z,20.20
2023-06-29T22:55:07.563Z,20.10
2023-06-29T22:57:35.402Z,20.10
2023-06-29T23:00:03.647Z,20.10
2023-06-29T23:02:31.599Z,20.00
2023-06-29T23:04:59.480Z,20.10
2023-06-29T23:07:27.392Z,20.20
2023-06-29T23:09:56.581Z,20.30
2023-06-29T23:12:27.270Z,20.30
2023-06-29T23:14:56.025Z,20.30
2023-06-29T23:17:24.513Z,20.30
2023-06-29T23:19:52.376Z,20.30
2023-06-29T23:22:22.123Z,20.20
2023-06-29T23:24:54.032Z,20.30
2023-06-29T23:27:23.499Z,20.30
2023-06-29T23:29:53.952Z,20.40
2023-06-29T23:32:22.560Z,20.30
2023-06-29T23:34:51.090Z,20.40
2023-06-29T23:37:18.969Z,20.40
2023-06-29T23:39:46.836Z,20.30
2023-06-29T23:42:14.732Z,20.30
2023-06-29T23:44:43.991Z,20.10
2023-06-29T23:47:13.944Z,20.10
2023-06-29T23:49:43.134Z,20.00
2023-06-29T23:52:11.307Z,19.90
2023-06-29T23:54:39.196Z,19.90
2023-06-29T23:57:08.838Z,19.90
2023-06-29T23:59:36.711Z,20.00
